createdAt,value
2018-01-02T00:00:23.811Z,996.89
2018-01-02T00:01:23.827Z,996.86
2018-01-02T00:02:23.837Z,996.91
2018-01-02T00:03:23.860Z,996.96
2018-01-02T00:04:23.876Z,996.95
2018-01-02T00:05:23.893Z,996.99
2018-01-02T00:06:23.907Z,996.91
2018-01-02T00:07:23.924Z,996.99
2018-01-02T00:08:23.943Z,997.01
2018-01-02T00:09:23.959Z,997.08
2018-01-02T00:10:23.971Z,997.13
2018-01-02T00:11:23.992Z,997.06
2018-01-02T00:12:24.006Z,997.07
2018-01-02T00:13:24.015Z,997.09
2018-01-02T00:14:24.040Z,997.07
2018-01-02T00:15:24.056Z,997.05
2018-01-02T00:16:24.069Z,997.05
2018-01-02T00:17:24.086Z,997.06
2018-01-02T00:18:24.101Z,997.08
2018-01-02T00:19:24.133Z,997.08
2018-01-02T00:20:24.134Z,997.13
2018-01-02T00:21:24.151Z,997.09
2018-01-02T00:22:24.166Z,997.08
2018-01-02T00:23:24.181Z,997.07
2018-01-02T00:24:24.199Z,997.15
2018-01-02T00:25:24.215Z,997.13
2018-01-02T00:26:24.236Z,997.13
2018-01-02T00:27:24.244Z,997.11
2018-01-02T00:28:24.262Z,997.13
2018-01-02T00:29:24.276Z,997.19
2018-01-02T00:30:24.293Z,997.21
2018-01-02T00:31:24.309Z,997.23
2018-01-02T00:32:24.320Z,997.26
2018-01-02T00:33:24.347Z,997.26
2018-01-02T00:34:24.358Z,997.27
2018-01-02T00:35:24.375Z,997.33
2018-01-02T00:36:24.391Z,997.36
2018-01-02T00:37:24.405Z,997.30
2018-01-02T00:38:24.420Z,997.27
2018-01-02T00:39:24.439Z,997.29
2018-01-02T00:40:24.453Z,997.31
2018-01-02T00:41:24.469Z,997.35
2018-01-02T00:42:24.487Z,997.39
2018-01-02T00:43:24.499Z,997.39
2018-01-02T00:44:24.516Z,997.39
2018-01-02T00:45:24.530Z,997.43
2018-01-02T00:46:24.542Z,997.46
2018-01-02T00:47:24.565Z,997.46
2018-01-02T00:48:24.580Z,997.45
2018-01-02T00:49:24.598Z,997.47
2018-01-02T00:50:24.611Z,997.49
2018-01-02T00:51:24.628Z,997.42
2018-01-02T00:52:24.644Z,997.45
2018-01-02T00:53:24.659Z,997.51
2018-01-02T00:54:24.673Z,997.58
2018-01-02T00:55:24.691Z,997.58
2018-01-02T00:56:24.706Z,997.58
2018-01-02T00:57:24.723Z,997.58
2018-01-02T00:58:24.738Z,997.60
2018-01-02T00:59:24.754Z,997.57
2018-01-02T01:00:24.772Z,997.58
2018-01-02T01:01:24.787Z,997.59
2018-01-02T01:02:24.801Z,997.59
2018-01-02T01:03:24.818Z,997.61
2018-01-02T01:04:24.834Z,997.64
2018-01-02T01:05:24.852Z,997.66
2018-01-02T01:06:24.859Z,997.67
2018-01-02T01:07:24.880Z,997.67
2018-01-02T01:08:24.896Z,997.70
2018-01-02T01:09:24.913Z,997.74
2018-01-02T01:10:24.927Z,997.73
2018-01-02T01:11:24.945Z,997.73
2018-01-02T01:12:24.961Z,997.79
2018-01-02T01:13:24.974Z,997.85
2018-01-02T01:14:24.992Z,997.84
2018-01-02T01:15:25.009Z,997.89
2018-01-02T01:16:25.021Z,997.86
2018-01-02T01:17:25.040Z,997.84
2018-01-02T01:18:25.054Z,997.88
2018-01-02T01:19:25.071Z,997.94
2018-01-02T01:20:25.088Z,997.95
2018-01-02T01:21:25.103Z,997.93
2018-01-02T01:22:25.117Z,997.96
2018-01-02T01:23:25.139Z,998.01
2018-01-02T01:24:25.152Z,997.99
2018-01-02T01:25:25.166Z,998.01
2018-01-02T01:26:25.184Z,998.09
2018-01-02T01:27:25.197Z,998.08
2018-01-02T01:28:25.212Z,998.14
2018-01-02T01:29:25.229Z,998.16
2018-01-02T01:30:25.244Z,998.16
2018-01-02T01:31:25.261Z,998.18
2018-01-02T01:32:25.278Z,998.22
2018-01-02T01:33:25.294Z,998.26
2018-01-02T01:34:25.308Z,998.16
2018-01-02T01:35:25.327Z,998.26
2018-01-02T01:36:25.340Z,998.25
2018-01-02T01:37:25.359Z,998.28
2018-01-02T01:38:25.378Z,998.24
2018-01-02T01:39:25.397Z,998.30
2018-01-02T01:40:25.403Z,998.25
2018-01-02T01:41:25.415Z,998.26
2018-01-02T01:42:25.435Z,998.28
2018-01-02T01:43:25.453Z,998.29
2018-01-02T01:44:25.467Z,998.31
2018-01-02T01:45:25.484Z,998.35
2018-01-02T01:46:25.499Z,998.34
2018-01-02T01:47:25.515Z,998.32
2018-01-02T01:48:25.542Z,998.31
2018-01-02T01:49:25.547Z,998.30
2018-01-02T01:50:25.563Z,998.35
2018-01-02T01:51:25.578Z,998.43
2018-01-02T01:52:25.595Z,998.49
2018-01-02T01:53:25.631Z,998.51
2018-01-02T01:54:25.628Z,998.51
2018-01-02T01:55:25.642Z,998.50
2018-01-02T01:56:25.658Z,998.54
2018-01-02T01:57:25.677Z,998.55
2018-01-02T01:58:25.692Z,998.55
2018-01-02T01:59:25.707Z,998.56
2018-01-02T02:00:25.724Z,998.55
2018-01-02T02:01:25.734Z,998.54
2018-01-02T02:02:25.755Z,998.59
2018-01-02T02:03:25.768Z,998.55
2018-01-02T02:04:25.789Z,998.59
2018-01-02T02:05:25.804Z,998.56
2018-01-02T02:06:25.820Z,998.57
2018-01-02T02:07:25.836Z,998.55
2018-01-02T02:08:25.853Z,998.58
2018-01-02T02:09:25.866Z,998.54
2018-01-02T02:10:25.886Z,998.63
2018-01-02T02:11:25.900Z,998.61
2018-01-02T02:12:25.910Z,998.62
2018-01-02T02:13:25.932Z,998.67
2018-01-02T02:14:25.949Z,998.67
2018-01-02T02:15:25.965Z,998.68
2018-01-02T02:16:25.982Z,998.69
2018-01-02T02:17:25.997Z,998.71
2018-01-02T02:18:26.017Z,998.72
2018-01-02T02:19:26.028Z,998.69
2018-01-02T02:20:26.044Z,998.69
2018-01-02T02:21:26.066Z,998.70
2018-01-02T02:22:26.075Z,998.73
2018-01-02T02:23:26.095Z,998.70
2018-01-02T02:24:26.109Z,998.69
2018-01-02T02:25:26.130Z,998.68
2018-01-02T02:26:26.141Z,998.65
2018-01-02T02:27:26.158Z,998.63
2018-01-02T02:28:26.177Z,998.66
2018-01-02T02:29:26.191Z,998.73
2018-01-02T02:30:26.207Z,998.76
2018-01-02T02:31:26.224Z,998.77
2018-01-02T02:32:26.240Z,998.79
2018-01-02T02:33:26.256Z,998.78
2018-01-02T02:34:26.270Z,998.81
2018-01-02T02:35:26.288Z,998.83
2018-01-02T02:36:26.297Z,998.84
2018-01-02T02:37:26.319Z,998.86
2018-01-02T02:38:26.334Z,998.87
2018-01-02T02:39:26.355Z,998.86
2018-01-02T02:40:26.369Z,998.90
2018-01-02T02:41:26.386Z,998.91
2018-01-02T02:42:26.401Z,998.92
2018-01-02T02:43:26.427Z,998.97
2018-01-02T02:44:26.430Z,998.93
2018-01-02T02:45:26.452Z,998.96
2018-01-02T02:46:26.463Z,998.97
2018-01-02T02:47:26.483Z,998.90
2018-01-02T02:48:26.498Z,998.94
2018-01-02T02:49:26.517Z,998.94
2018-01-02T02:50:26.529Z,998.96
2018-01-02T02:51:26.547Z,998.96
2018-01-02T02:52:26.562Z,998.95
2018-01-02T02:53:26.578Z,998.90
2018-01-02T02:54:26.593Z,998.96
2018-01-02T02:55:26.615Z,999.03
2018-01-02T02:56:26.628Z,999.01
2018-01-02T02:57:26.639Z,999.02
2018-01-02T02:58:26.657Z,999.03
2018-01-02T02:59:26.677Z,999.10
2018-01-02T03:00:26.692Z,999.03
2018-01-02T03:01:26.710Z,999.07
2018-01-02T03:02:26.723Z,999.05
2018-01-02T03:03:26.741Z,999.02
2018-01-02T03:04:26.759Z,999.02
2018-01-02T03:05:26.774Z,999.05
2018-01-02T03:06:26.784Z,999.05
2018-01-02T03:07:26.807Z,999.03
2018-01-02T03:08:26.822Z,999.06
2018-01-02T03:09:26.838Z,999.08
2018-01-02T03:10:26.854Z,999.14
2018-01-02T03:11:26.871Z,999.11
2018-01-02T03:12:26.887Z,999.11
2018-01-02T03:13:26.905Z,999.12
2018-01-02T03:14:26.918Z,999.07
2018-01-02T03:15:26.936Z,999.13
2018-01-02T03:16:26.952Z,999.20
2018-01-02T03:17:26.969Z,999.18
2018-01-02T03:18:26.984Z,999.21
2018-01-02T03:19:27.001Z,999.15
2018-01-02T03:20:27.020Z,999.14
2018-01-02T03:21:27.034Z,999.15
2018-01-02T03:22:27.049Z,999.15
2018-01-02T03:23:27.101Z,999.15
2018-01-02T03:24:27.084Z,999.17
2018-01-02T03:25:27.105Z,999.13
2018-01-02T03:26:27.114Z,999.18
2018-01-02T03:27:27.130Z,999.16
2018-01-02T03:28:27.156Z,999.17
2018-01-02T03:29:27.160Z,999.18
2018-01-02T03:30:27.181Z,999.21
2018-01-02T03:31:27.197Z,999.20
2018-01-02T03:32:27.213Z,999.24
2018-01-02T03:33:27.231Z,999.23
2018-01-02T03:34:27.245Z,999.24
2018-01-02T03:35:27.262Z,999.25
2018-01-02T03:36:27.280Z,999.28
2018-01-02T03:37:27.295Z,999.21
2018-01-02T03:38:27.310Z,999.25
2018-01-02T03:39:27.324Z,999.22
2018-01-02T03:40:27.337Z,999.25
2018-01-02T03:41:27.363Z,999.30
2018-01-02T03:42:27.373Z,999.28
2018-01-02T03:43:27.393Z,999.27
2018-01-02T03:44:27.407Z,999.28
2018-01-02T03:45:27.425Z,999.30
2018-01-02T03:46:27.439Z,999.41
2018-01-02T03:47:27.456Z,999.34
2018-01-02T03:48:27.474Z,999.38
2018-01-02T03:49:27.489Z,999.37
2018-01-02T03:50:27.506Z,999.39
2018-01-02T03:51:27.521Z,999.40
2018-01-02T03:52:27.538Z,999.46
2018-01-02T03:53:27.553Z,999.43
2018-01-02T03:54:27.571Z,999.42
2018-01-02T03:55:27.587Z,999.46
2018-01-02T03:56:27.604Z,999.51
2018-01-02T03:57:27.617Z,999.50
2018-01-02T03:58:27.635Z,999.52
2018-01-02T03:59:27.645Z,999.45
2018-01-02T04:00:27.666Z,999.53
2018-01-02T04:01:27.684Z,999.57
2018-01-02T04:02:27.699Z,999.62
2018-01-02T04:03:27.715Z,999.58
2018-01-02T04:04:27.733Z,999.59
2018-01-02T04:05:27.754Z,999.62
2018-01-02T04:06:27.764Z,999.61
2018-01-02T04:07:27.781Z,999.65
2018-01-02T04:08:27.798Z,999.66
2018-01-02T04:09:27.812Z,999.63
2018-01-02T04:10:27.827Z,999.68
2018-01-02T04:11:27.844Z,999.70
2018-01-02T04:12:27.863Z,999.70
2018-01-02T04:13:27.879Z,999.72
2018-01-02T04:14:27.894Z,999.79
2018-01-02T04:15:27.911Z,999.74
2018-01-02T04:16:27.930Z,999.76
2018-01-02T04:17:27.944Z,999.81
2018-01-02T04:18:27.958Z,999.81
2018-01-02T04:19:27.975Z,999.86
2018-01-02T04:20:27.991Z,999.90
2018-01-02T04:21:28.009Z,999.88
2018-01-02T04:22:28.025Z,999.92
2018-01-02T04:23:28.041Z,999.95
2018-01-02T04:24:28.060Z,999.90
2018-01-02T04:25:28.076Z,999.93
2018-01-02T04:26:28.111Z,999.93
2018-01-02T04:27:28.110Z,999.94
2018-01-02T04:28:28.122Z,999.97
2018-01-02T04:29:28.148Z,999.99
2018-01-02T04:30:28.155Z,999.97
2018-01-02T04:31:28.171Z,1000.01
2018-01-02T04:32:28.188Z,1000.07
2018-01-02T04:33:28.201Z,1000.10
2018-01-02T04:34:28.221Z,1000.11
2018-01-02T04:35:28.237Z,1000.17
2018-01-02T04:36:28.254Z,1000.23
2018-01-02T04:37:28.271Z,1000.21
2018-01-02T04:38:28.286Z,1000.19
2018-01-02T04:39:28.302Z,1000.23
2018-01-02T04:40:28.322Z,1000.29
2018-01-02T04:41:28.338Z,1000.33
2018-01-02T04:42:28.351Z,1000.34
2018-01-02T04:43:28.364Z,1000.39
2018-01-02T04:44:28.383Z,1000.43
2018-01-02T04:45:28.402Z,1000.42
2018-01-02T04:46:28.415Z,1000.45
2018-01-02T04:47:28.432Z,1000.50
2018-01-02T04:48:28.448Z,1000.52
2018-01-02T04:49:28.464Z,1000.53
2018-01-02T04:50:28.481Z,1000.48
2018-01-02T04:51:28.498Z,1000.52
2018-01-02T04:52:28.516Z,1000.51
2018-01-02T04:53:28.530Z,1000.57
2018-01-02T04:54:28.543Z,1000.57
2018-01-02T04:55:28.564Z,1000.61
2018-01-02T04:56:28.579Z,1000.63
2018-01-02T04:57:28.594Z,1000.62
2018-01-02T04:58:28.619Z,1000.69
2018-01-02T04:59:28.628Z,1000.77
2018-01-02T05:00:28.644Z,1000.78
2018-01-02T05:01:28.665Z,1000.77
2018-01-02T05:02:28.673Z,1000.75
2018-01-02T05:03:28.696Z,1000.84
2018-01-02T05:04:28.707Z,1000.85
2018-01-02T05:05:28.726Z,1000.91
2018-01-02T05:06:28.742Z,1000.90
2018-01-02T05:07:28.760Z,1000.96
2018-01-02T05:08:28.772Z,1001.02
2018-01-02T05:09:28.792Z,1001.04
2018-01-02T05:10:28.808Z,1001.08
2018-01-02T05:11:28.823Z,1001.06
2018-01-02T05:12:28.840Z,1001.10
2018-01-02T05:13:28.858Z,1001.04
2018-01-02T05:14:28.874Z,1001.14
2018-01-02T05:15:28.885Z,1001.15
2018-01-02T05:16:28.907Z,1001.17
2018-01-02T05:17:28.921Z,1001.19
2018-01-02T05:18:28.939Z,1001.24
2018-01-02T05:19:28.957Z,1001.27
2018-01-02T05:20:28.971Z,1001.32
2018-01-02T05:21:28.988Z,1001.31
2018-01-02T05:22:29.009Z,1001.33
2018-01-02T05:23:29.019Z,1001.36
2018-01-02T05:24:29.036Z,1001.39
2018-01-02T05:25:29.052Z,1001.38
2018-01-02T05:26:29.069Z,1001.32
2018-01-02T05:27:29.086Z,1001.36
2018-01-02T05:28:29.103Z,1001.37
2018-01-02T05:29:29.119Z,1001.40
2018-01-02T05:30:29.137Z,1001.40
2018-01-02T05:31:29.152Z,1001.44
2018-01-02T05:32:29.168Z,1001.44
2018-01-02T05:33:29.186Z,1001.42
2018-01-02T05:34:29.200Z,1001.42
2018-01-02T05:35:29.218Z,1001.52
2018-01-02T05:36:29.236Z,1001.49
2018-01-02T05:37:29.249Z,1001.51
2018-01-02T05:38:29.268Z,1001.49
2018-01-02T05:39:29.282Z,1001.57
2018-01-02T05:40:29.299Z,1001.51
2018-01-02T05:41:29.315Z,1001.57
2018-01-02T05:42:29.331Z,1001.53
2018-01-02T05:43:29.350Z,1001.53
2018-01-02T05:44:29.365Z,1001.58
2018-01-02T05:45:29.376Z,1001.63
2018-01-02T05:46:29.397Z,1001.68
2018-01-02T05:47:29.414Z,1001.71
2018-01-02T05:48:29.430Z,1001.70
2018-01-02T05:49:29.448Z,1001.68
2018-01-02T05:50:29.466Z,1001.71
2018-01-02T05:51:29.483Z,1001.72
2018-01-02T05:52:29.498Z,1001.87
2018-01-02T05:53:29.513Z,1001.90
2018-01-02T05:54:29.528Z,1001.88
2018-01-02T05:55:29.549Z,1001.88
2018-01-02T05:56:29.562Z,1001.86
2018-01-02T05:57:29.578Z,1001.84
2018-01-02T05:58:29.596Z,1001.86
2018-01-02T05:59:29.613Z,1001.91
2018-01-02T06:00:29.627Z,1001.91
2018-01-02T06:01:29.644Z,1002.02
2018-01-02T06:02:29.662Z,1002.01
2018-01-02T06:03:29.676Z,1002.00
2018-01-02T06:04:29.699Z,1002.01
2018-01-02T06:05:29.709Z,1001.99
2018-01-02T06:06:29.725Z,1002.05
2018-01-02T06:07:29.743Z,1002.08
2018-01-02T06:08:29.758Z,1002.12
2018-01-02T06:09:29.784Z,1002.10
2018-01-02T06:10:29.791Z,1002.13
2018-01-02T06:11:29.807Z,1002.15
2018-01-02T06:12:29.824Z,1002.14
2018-01-02T06:13:29.840Z,1002.22
2018-01-02T06:14:29.858Z,1002.21
2018-01-02T06:15:29.876Z,1002.18
2018-01-02T06:16:29.890Z,1002.28
2018-01-02T06:17:29.906Z,1002.28
2018-01-02T06:18:29.920Z,1002.32
2018-01-02T06:19:29.939Z,1002.31
2018-01-02T06:20:29.956Z,1002.34
2018-01-02T06:21:29.971Z,1002.40
2018-01-02T06:22:29.990Z,1002.36
2018-01-02T06:23:30.008Z,1002.32
2018-01-02T06:24:30.022Z,1002.38
2018-01-02T06:25:30.043Z,1002.47
2018-01-02T06:26:30.055Z,1002.46
2018-01-02T06:27:30.065Z,1002.49
2018-01-02T06:28:30.085Z,1002.50
2018-01-02T06:29:30.099Z,1002.54
2018-01-02T06:30:30.119Z,1002.50
2018-01-02T06:31:30.136Z,1002.58
2018-01-02T06:32:30.150Z,1002.55
2018-01-02T06:33:30.170Z,1002.60
2018-01-02T06:34:30.184Z,1002.58
2018-01-02T06:35:30.202Z,1002.60
2018-01-02T06:36:30.215Z,1002.62
2018-01-02T06:37:30.235Z,1002.61
2018-01-02T06:38:30.250Z,1002.63
2018-01-02T06:39:30.266Z,1002.63
2018-01-02T06:40:30.284Z,1002.66
2018-01-02T06:41:30.300Z,1002.72
2018-01-02T06:42:30.316Z,1002.71
2018-01-02T06:43:30.335Z,1002.69
2018-01-02T06:44:30.349Z,1002.71
2018-01-02T06:45:30.366Z,1002.66
2018-01-02T06:46:30.380Z,1002.77
2018-01-02T06:47:30.396Z,1002.79
2018-01-02T06:48:30.415Z,1002.79
2018-01-02T06:49:30.431Z,1002.79
2018-01-02T06:50:30.450Z,1002.83
2018-01-02T06:51:30.465Z,1002.77
2018-01-02T06:52:30.482Z,1002.81
2018-01-02T06:53:30.499Z,1002.90
2018-01-02T06:54:30.516Z,1002.85
2018-01-02T06:55:30.531Z,1002.89
2018-01-02T06:56:30.546Z,1002.91
2018-01-02T06:57:30.569Z,1002.90
2018-01-02T06:58:30.575Z,1002.92
2018-01-02T06:59:30.614Z,1002.95
2018-01-02T07:00:30.609Z,1002.96
2018-01-02T07:01:30.630Z,1002.96
2018-01-02T07:02:30.644Z,1003.00
2018-01-02T07:03:30.663Z,1003.01
2018-01-02T07:04:30.679Z,1003.04
2018-01-02T07:05:30.696Z,1003.03
2018-01-02T07:06:30.714Z,1003.05
2018-01-02T07:07:30.728Z,1003.08
2018-01-02T07:08:30.744Z,1003.07
2018-01-02T07:09:30.761Z,1003.18
2018-01-02T07:10:30.775Z,1003.23
2018-01-02T07:11:30.794Z,1003.15
2018-01-02T07:12:30.813Z,1003.22
2018-01-02T07:13:30.827Z,1003.21
2018-01-02T07:14:30.844Z,1003.19
2018-01-02T07:15:30.860Z,1003.21
2018-01-02T07:16:30.877Z,1003.17
2018-01-02T07:17:30.891Z,1003.27
2018-01-02T07:18:30.908Z,1003.24
2018-01-02T07:19:30.933Z,1003.36
2018-01-02T07:20:30.942Z,1003.38
2018-01-02T07:21:30.954Z,1003.39
2018-01-02T07:22:30.973Z,1003.40
2018-01-02T07:23:30.993Z,1003.35
2018-01-02T07:24:31.008Z,1003.38
2018-01-02T07:25:31.065Z,1003.40
2018-01-02T07:26:31.040Z,1003.40
2018-01-02T07:27:31.055Z,1003.53
2018-01-02T07:28:31.072Z,1003.53
2018-01-02T07:29:31.088Z,1003.63
2018-01-02T07:30:31.105Z,1003.66
2018-01-02T07:31:31.120Z,1003.72
2018-01-02T07:32:31.141Z,1003.72
2018-01-02T07:33:31.154Z,1003.80
2018-01-02T07:34:31.171Z,1003.80
2018-01-02T07:35:31.190Z,1003.87
2018-01-02T07:36:31.204Z,1003.89
2018-01-02T07:37:31.222Z,1003.89
2018-01-02T07:38:31.245Z,1003.94
2018-01-02T07:39:31.250Z,1004.02
2018-01-02T07:40:31.269Z,1004.04
2018-01-02T07:41:31.285Z,1004.04
2018-01-02T07:42:31.296Z,1004.02
2018-01-02T07:43:31.316Z,1004.09
2018-01-02T07:44:31.334Z,1004.17
2018-01-02T07:45:31.348Z,1004.14
2018-01-02T07:46:31.365Z,1004.14
2018-01-02T07:47:31.381Z,1004.19
2018-01-02T07:48:31.398Z,1004.24
2018-01-02T07:49:31.414Z,1004.26
2018-01-02T07:50:31.429Z,1004.30
2018-01-02T07:51:31.446Z,1004.31
2018-01-02T07:52:31.462Z,1004.34
2018-01-02T07:53:31.477Z,1004.37
2018-01-02T07:54:31.495Z,1004.42
2018-01-02T07:55:31.513Z,1004.42
2018-01-02T07:56:31.550Z,1004.43
2018-01-02T07:57:31.550Z,1004.48
2018-01-02T07:58:31.562Z,1004.54
2018-01-02T07:59:31.576Z,1004.58
2018-01-02T08:00:31.602Z,1004.63
2018-01-02T08:01:31.610Z,1004.63
2018-01-02T08:02:31.624Z,1004.66
2018-01-02T08:03:31.639Z,1004.68
2018-01-02T08:04:31.659Z,1004.66
2018-01-02T08:05:31.674Z,1004.68
2018-01-02T08:06:31.692Z,1004.72
2018-01-02T08:07:31.707Z,1004.66
2018-01-02T08:08:31.726Z,1004.69
2018-01-02T08:09:31.742Z,1004.70
2018-01-02T08:10:31.756Z,1004.72
2018-01-02T08:11:31.774Z,1004.75
2018-01-02T08:12:31.783Z,1004.79
2018-01-02T08:13:31.806Z,1004.78
2018-01-02T08:14:31.822Z,1004.79
2018-01-02T08:15:31.838Z,1004.81
2018-01-02T08:16:31.855Z,1004.79
2018-01-02T08:17:31.871Z,1004.82
2018-01-02T08:18:31.887Z,1004.88
2018-01-02T08:19:31.904Z,1004.87
2018-01-02T08:20:31.922Z,1004.91
2018-01-02T08:21:31.938Z,1004.94
2018-01-02T08:22:31.953Z,1004.97
2018-01-02T08:23:31.970Z,1004.90
2018-01-02T08:24:31.984Z,1004.94
2018-01-02T08:25:32.003Z,1004.94
2018-01-02T08:26:32.019Z,1004.97
2018-01-02T08:27:32.036Z,1005.06
2018-01-02T08:28:32.052Z,1005.02
2018-01-02T08:29:32.070Z,1005.02
2018-01-02T08:30:32.085Z,1005.14
2018-01-02T08:31:32.116Z,1005.18
2018-01-02T08:32:32.117Z,1005.12
2018-01-02T08:33:32.138Z,1005.20
2018-01-02T08:34:32.151Z,1005.19
2018-01-02T08:35:32.167Z,1005.17
2018-01-02T08:36:32.184Z,1005.24
2018-01-02T08:37:32.201Z,1005.23
2018-01-02T08:38:32.215Z,1005.21
2018-01-02T08:39:32.236Z,1005.25
2018-01-02T08:40:32.249Z,1005.26
2018-01-02T08:41:32.265Z,1005.20
2018-01-02T08:42:32.283Z,1005.21
2018-01-02T08:43:32.302Z,1005.18
2018-01-02T08:44:32.316Z,1005.23
2018-01-02T08:45:32.334Z,1005.24
2018-01-02T08:46:32.348Z,1005.30
2018-01-02T08:47:32.365Z,1005.31
2018-01-02T08:48:32.381Z,1005.28
2018-01-02T08:49:32.399Z,1005.33
2018-01-02T08:50:32.415Z,1005.28
2018-01-02T08:51:32.431Z,1005.29
2018-01-02T08:52:32.447Z,1005.31
2018-01-02T08:53:32.469Z,1005.29
2018-01-02T08:54:32.473Z,1005.29
2018-01-02T08:55:32.497Z,1005.33
2018-01-02T08:56:32.514Z,1005.34
2018-01-02T08:57:32.532Z,1005.38
2018-01-02T08:58:32.548Z,1005.37
2018-01-02T08:59:32.561Z,1005.39
2018-01-02T09:00:32.637Z,1005.41
2018-01-02T09:01:32.595Z,1005.38
2018-01-02T09:02:32.613Z,1005.43
2018-01-02T09:03:32.629Z,1005.43
2018-01-02T09:04:32.642Z,1005.37
2018-01-02T09:05:32.663Z,1005.35
2018-01-02T09:06:32.676Z,1005.38
2018-01-02T09:07:32.696Z,1005.42
2018-01-02T09:08:32.716Z,1005.46
2018-01-02T09:09:32.731Z,1005.49
2018-01-02T09:10:32.757Z,1005.53
2018-01-02T09:11:32.763Z,1005.55
2018-01-02T09:12:32.781Z,1005.56
2018-01-02T09:13:32.799Z,1005.55
2018-01-02T09:14:32.811Z,1005.57
2018-01-02T09:15:32.828Z,1005.57
2018-01-02T09:16:32.848Z,1005.58
2018-01-02T09:17:32.865Z,1005.56
2018-01-02T09:18:32.883Z,1005.62
2018-01-02T09:19:32.897Z,1005.61
2018-01-02T09:20:32.918Z,1005.65
2018-01-02T09:21:32.933Z,1005.63
2018-01-02T09:22:32.962Z,1005.62
2018-01-02T09:23:32.964Z,1005.68
2018-01-02T09:24:32.983Z,1005.68
2018-01-02T09:25:33.000Z,1005.70
2018-01-02T09:26:33.013Z,1005.71
2018-01-02T09:27:33.036Z,1005.70
2018-01-02T09:28:33.055Z,1005.75
2018-01-02T09:29:33.068Z,1005.75
2018-01-02T09:30:33.085Z,1005.73
2018-01-02T09:31:33.096Z,1005.67
2018-01-02T09:32:33.112Z,1005.73
2018-01-02T09:33:33.138Z,1005.64
2018-01-02T09:34:33.150Z,1005.67
2018-01-02T09:35:33.168Z,1005.68
2018-01-02T09:36:33.187Z,1005.68
2018-01-02T09:37:33.205Z,1005.69
2018-01-02T09:38:33.231Z,1005.76
2018-01-02T09:39:33.237Z,1005.77
2018-01-02T09:40:33.260Z,1005.79
2018-01-02T09:41:33.271Z,1005.86
2018-01-02T09:42:33.288Z,1005.87
2018-01-02T09:43:33.305Z,1005.88
2018-01-02T09:44:33.322Z,1005.90
2018-01-02T09:45:33.339Z,1005.88
2018-01-02T09:46:33.353Z,1005.88
2018-01-02T09:47:33.374Z,1005.90
2018-01-02T09:48:33.391Z,1005.90
2018-01-02T09:49:33.408Z,1005.94
2018-01-02T09:50:33.425Z,1005.90
2018-01-02T09:51:33.444Z,1005.90
2018-01-02T09:52:33.460Z,1005.92
2018-01-02T09:53:33.478Z,1005.96
2018-01-02T09:54:33.493Z,1005.90
2018-01-02T09:55:33.510Z,1005.91
2018-01-02T09:56:33.527Z,1005.83
2018-01-02T09:57:33.546Z,1005.85
2018-01-02T09:58:33.560Z,1005.88
2018-01-02T09:59:33.578Z,1005.92
2018-01-02T10:00:33.596Z,1005.94
2018-01-02T10:01:33.614Z,1005.89
2018-01-02T10:02:33.628Z,1005.88
2018-01-02T10:03:33.645Z,1005.89
2018-01-02T10:04:33.660Z,1005.87
2018-01-02T10:05:33.681Z,1005.90
2018-01-02T10:06:33.698Z,1005.91
2018-01-02T10:07:33.715Z,1005.90
2018-01-02T10:08:33.732Z,1005.93
2018-01-02T10:09:33.749Z,1005.89
2018-01-02T10:10:33.767Z,1005.87
2018-01-02T10:11:33.783Z,1005.94
2018-01-02T10:12:33.802Z,1005.91
2018-01-02T10:13:33.820Z,1005.93
2018-01-02T10:14:33.830Z,1005.93
2018-01-02T10:15:33.852Z,1005.93
2018-01-02T10:16:33.870Z,1005.98
2018-01-02T10:17:33.887Z,1005.97
2018-01-02T10:18:33.912Z,1006.01
2018-01-02T10:19:33.921Z,1006.02
2018-01-02T10:20:33.939Z,1006.01
2018-01-02T10:21:33.955Z,1006.01
2018-01-02T10:22:33.988Z,1006.07
2018-01-02T10:23:33.990Z,1006.07
2018-01-02T10:24:34.005Z,1006.05
2018-01-02T10:25:34.026Z,1006.05
2018-01-02T10:26:34.042Z,1005.96
2018-01-02T10:27:34.061Z,1005.98
2018-01-02T10:28:34.077Z,1005.98
2018-01-02T10:29:34.096Z,1006.00
2018-01-02T10:30:34.117Z,1006.05
2018-01-02T10:31:34.142Z,1006.03
2018-01-02T10:32:34.146Z,1006.02
2018-01-02T10:33:34.165Z,1005.98
2018-01-02T10:34:34.181Z,1005.99
2018-01-02T10:35:34.200Z,1005.94
2018-01-02T10:36:34.217Z,1005.98
2018-01-02T10:37:34.237Z,1005.97
2018-01-02T10:38:34.251Z,1005.99
2018-01-02T10:39:34.270Z,1005.91
2018-01-02T10:40:34.288Z,1005.95
2018-01-02T10:41:34.314Z,1005.90
2018-01-02T10:42:34.321Z,1005.85
2018-01-02T10:43:34.337Z,1005.85
2018-01-02T10:44:34.365Z,1005.89
2018-01-02T10:45:34.373Z,1005.96
2018-01-02T10:46:34.390Z,1005.98
2018-01-02T10:47:34.410Z,1005.99
2018-01-02T10:48:34.426Z,1006.03
2018-01-02T10:49:34.446Z,1006.07
2018-01-02T10:50:34.461Z,1006.04
2018-01-02T10:51:34.477Z,1006.13
2018-01-02T10:52:34.498Z,1006.12
2018-01-02T10:53:34.512Z,1006.13
2018-01-02T10:54:34.527Z,1006.13
2018-01-02T10:55:34.549Z,1006.15
2018-01-02T10:56:34.566Z,1006.20
2018-01-02T10:57:34.588Z,1006.22
2018-01-02T10:58:34.602Z,1006.26
2018-01-02T10:59:34.619Z,1006.31
2018-01-02T11:00:34.636Z,1006.26
2018-01-02T11:01:34.661Z,1006.21
2018-01-02T11:02:34.674Z,1006.24
2018-01-02T11:03:34.685Z,1006.24
2018-01-02T11:04:34.708Z,1006.27
2018-01-02T11:05:34.725Z,1006.26
2018-01-02T11:06:34.743Z,1006.24
2018-01-02T11:07:34.761Z,1006.31
2018-01-02T11:08:34.777Z,1006.28
2018-01-02T11:09:34.797Z,1006.31
2018-01-02T11:10:34.809Z,1006.24
2018-01-02T11:11:34.830Z,1006.27
2018-01-02T11:12:34.845Z,1006.26
2018-01-02T11:13:34.866Z,1006.27
2018-01-02T11:14:34.886Z,1006.31
2018-01-02T11:15:34.901Z,1006.38
2018-01-02T11:16:34.919Z,1006.37
2018-01-02T11:17:34.934Z,1006.39
2018-01-02T11:18:34.951Z,1006.39
2018-01-02T11:19:34.967Z,1006.46
2018-01-02T11:20:34.982Z,1006.41
2018-01-02T11:21:35.005Z,1006.36
2018-01-02T11:22:35.015Z,1006.39
2018-01-02T11:23:35.040Z,1006.37
2018-01-02T11:24:35.057Z,1006.44
2018-01-02T11:25:35.078Z,1006.37
2018-01-02T11:26:35.094Z,1006.37
2018-01-02T11:27:35.108Z,1006.29
2018-01-02T11:28:35.131Z,1006.27
2018-01-02T11:29:35.141Z,1006.28
2018-01-02T11:30:35.158Z,1006.30
2018-01-02T11:31:35.175Z,1006.28
2018-01-02T11:32:35.195Z,1006.20
2018-01-02T11:33:35.216Z,1006.22
2018-01-02T11:34:35.228Z,1006.28
2018-01-02T11:35:35.249Z,1006.26
2018-01-02T11:36:35.265Z,1006.24
2018-01-02T11:37:35.282Z,1006.24
2018-01-02T11:38:35.300Z,1006.23
2018-01-02T11:39:35.316Z,1006.14
2018-01-02T11:40:35.335Z,1006.16
2018-01-02T11:41:35.352Z,1006.09
2018-01-02T11:42:35.372Z,1006.11
2018-01-02T11:43:35.387Z,1006.06
2018-01-02T11:44:35.406Z,1006.09
2018-01-02T11:45:35.422Z,1006.09
2018-01-02T11:46:35.438Z,1006.06
2018-01-02T11:47:35.466Z,1006.03
2018-01-02T11:48:35.473Z,1006.02
2018-01-02T11:49:35.492Z,1006.05
2018-01-02T11:50:35.507Z,1006.04
2018-01-02T11:51:35.527Z,1006.07
2018-01-02T11:52:35.543Z,1006.02
2018-01-02T11:53:35.563Z,1006.05
2018-01-02T11:54:35.584Z,1005.98
2018-01-02T11:55:35.597Z,1006.03
2018-01-02T11:56:35.615Z,1006.06
2018-01-02T11:57:35.638Z,1005.99
2018-01-02T11:58:35.649Z,1005.95
2018-01-02T11:59:35.667Z,1005.97
2018-01-02T12:00:35.685Z,1005.93
2018-01-02T12:01:35.705Z,1005.89
2018-01-02T12:02:35.720Z,1005.93
2018-01-02T12:03:35.739Z,1005.88
2018-01-02T12:04:35.756Z,1005.86
2018-01-02T12:05:35.773Z,1005.87
2018-01-02T12:06:35.795Z,1005.78
2018-01-02T12:07:35.808Z,1005.82
2018-01-02T12:08:35.826Z,1005.79
2018-01-02T12:09:35.846Z,1005.81
2018-01-02T12:10:35.919Z,1005.77
2018-01-02T12:11:35.886Z,1005.73
2018-01-02T12:12:35.896Z,1005.68
2018-01-02T12:13:35.915Z,1005.67
2018-01-02T12:14:35.933Z,1005.62